Time;durP1;ratioP1;P1;durP2;ratioP2;P2;SDS_P1;SDS_P2;PMS_P1;PMS_P2;Temp;Humidity;BMP_temperature;BMP_pressure;BME280_temperature;BME280_humidity;BME280_pressure;Samples;Min_cycle;Max_cycle;Signal;HPM_P1;HPM_P2
2023/03/12 00:00:00;;;;;;;;;20.67;14.33;;;;;;;;5075062;27;46581;-54
2023/03/12 00:02:27;;;;;;;;;14.67;10.67;;;;;;;;5052415;28;45519;-55
2023/03/12 00:04:52;;;;;;;;;13.00;12.67;;;;;;;;5068256;27;45493;-55
2023/03/12 00:07:19;;;;;;;;;15.00;14.00;;;;;;;;5045960;28;45400;-55
2023/03/12 00:09:46;;;;;;;;;13.75;13.75;;;;;;;;5059453;28;45457;-52
2023/03/12 00:12:12;;;;;;;;;8.67;7.00;;;;;;;;5070153;27;45524;-56
2023/03/12 00:14:37;;;;;;;;;14.67;14.33;;;;;;;;5057472;28;45675;-54
2023/03/12 00:17:04;;;;;;;;;15.00;15.00;;;;;;;;5047465;28;45659;-55
2023/03/12 00:19:30;;;;;;;;;12.00;9.00;;;;;;;;5075656;27;46088;-56
2023/03/12 00:21:55;;;;;;;;;14.00;14.00;;;;;;;;5065406;28;45414;-56
2023/03/12 00:24:21;;;;;;;;;10.33;10.33;;;;;;;;5075695;27;46101;-54
2023/03/12 00:26:46;;;;;;;;;14.00;12.00;;;;;;;;5063175;27;45369;-54
2023/03/12 00:29:12;;;;;;;;;11.67;11.67;;;;;;;;5060992;28;46309;-56
2023/03/12 00:31:38;;;;;;;;;15.00;13.67;;;;;;;;5069543;27;45522;-57
2023/03/12 00:34:04;;;;;;;;;13.67;11.67;;;;;;;;5057893;27;45468;-55
2023/03/12 00:36:31;;;;;;;;;10.67;10.33;;;;;;;;5070348;27;45478;-55
2023/03/12 00:38:57;;;;;;;;;11.33;11.33;;;;;;;;5040622;28;45527;-54
2023/03/12 00:41:23;;;;;;;;;15.00;14.33;;;;;;;;5054497;27;45534;-54
2023/03/12 00:43:49;;;;;;;;;14.67;14.00;;;;;;;;5062518;27;45561;-55
2023/03/12 00:46:15;;;;;;;;;17.33;12.33;;;;;;;;5058962;27;45490;-56
2023/03/12 00:48:40;;;;;;;;;14.33;14.33;;;;;;;;5075135;28;46647;-53
2023/03/12 00:51:06;;;;;;;;;7.67;7.33;;;;;;;;5060776;27;45474;-54
2023/03/12 00:53:31;;;;;;;;;11.00;9.67;;;;;;;;5073006;27;45490;-54
2023/03/12 00:55:57;;;;;;;;;14.67;10.33;;;;;;;;5049119;28;45547;-56
2023/03/12 00:58:22;;;;;;;;;13.33;12.00;;;;;;;;5046413;28;45580;-56
2023/03/12 01:00:49;;;;;;;;;13.00;11.67;;;;;;;;5062697;27;45546;-54
2023/03/12 01:03:15;;;;;;;;;9.00;9.00;;;;;;;;5063762;28;45510;-56
2023/03/12 01:05:40;;;;;;;;;9.67;9.00;;;;;;;;5061732;27;45533;-54
2023/03/12 01:08:08;;;;;;;;;9.67;9.67;;;;;;;;5068702;27;45543;-52
2023/03/12 01:10:34;;;;;;;;;9.00;9.00;;;;;;;;5050188;28;45553;-52
2023/03/12 01:13:00;;;;;;;;;10.00;10.00;;;;;;;;5051540;28;45577;-55
2023/03/12 01:15:27;;;;;;;;;12.67;12.67;;;;;;;;5040434;28;45418;-57
2023/03/12 01:17:54;;;;;;;;;12.00;12.00;;;;;;;;5070067;28;46215;-54
2023/03/12 01:20:21;;;;;;;;;12.33;9.33;;;;;;;;5067901;27;45443;-55
2023/03/12 01:22:47;;;;;;;;;13.33;11.00;;;;;;;;5074318;27;45825;-56
2023/03/12 01:25:14;;;;;;;;;13.00;10.00;;;;;;;;5068588;27;45501;-53
2023/03/12 01:27:39;;;;;;;;;12.00;9.00;;;;;;;;5069035;27;45482;-56
2023/03/12 01:30:05;;;;;;;;;8.67;8.67;;;;;;;;5030750;28;45575;-54
2023/03/12 01:32:30;;;;;;;;;14.67;12.33;;;;;;;;5049910;28;45862;-54
2023/03/12 01:34:56;;;;;;;;;10.67;9.00;;;;;;;;5043818;28;45534;-55
2023/03/12 01:37:22;;;;;;;;;11.67;8.33;;;;;;;;5048534;28;45962;-56
2023/03/12 01:39:47;;;;;;;;;10.67;10.00;;;;;;;;5036035;28;45564;-55
2023/03/12 01:42:13;;;;;;;;;6.67;6.67;;;;;;;;5036308;28;45571;-54
2023/03/12 01:44:48;;;;;;;;;12.67;11.00;;;;;;;;5045439;28;45616;-54
2023/03/12 01:47:13;;;;;;;;;10.00;9.00;;;;;;;;5053558;28;46082;-56
2023/03/12 01:49:39;;;;;;;;;10.33;8.00;;;;;;;;5050324;28;45490;-53
2023/03/12 01:52:20;;;;;;;;;9.00;7.00;;;;;;;;5042884;28;45491;-56
2023/03/12 01:54:48;;;;;;;;;7.33;7.00;;;;;;;;5047737;28;45625;-52
2023/03/12 01:57:16;;;;;;;;;9.00;9.00;;;;;;;;5042100;28;46229;-56
2023/03/12 01:59:44;;;;;;;;;7.33;5.00;;;;;;;;5050612;28;45488;-54
2023/03/12 02:02:10;;;;;;;;;9.33;8.67;;;;;;;;5051680;28;45486;-55
2023/03/12 02:04:37;;;;;;;;;9.67;9.67;;;;;;;;5030961;28;45555;-55
2023/03/12 02:07:04;;;;;;;;;10.33;7.00;;;;;;;;5049389;28;45531;-52
2023/03/12 02:09:33;;;;;;;;;10.33;8.00;;;;;;;;5034147;28;45438;-55
2023/03/12 02:11:59;;;;;;;;;5.33;5.33;;;;;;;;5035757;28;45463;-56
2023/03/12 02:14:26;;;;;;;;;9.67;8.67;;;;;;;;5037447;28;45506;-55
2023/03/12 02:16:52;;;;;;;;;9.67;8.33;;;;;;;;5039729;28;45608;-54
2023/03/12 02:19:33;;;;;;;;;10.00;8.00;;;;;;;;5046496;28;45499;-54
2023/03/12 02:21:58;;;;;;;;;4.00;4.00;;;;;;;;5048877;28;46076;-56
2023/03/12 02:24:31;;;;;;;;;10.67;7.33;;;;;;;;5038900;28;45556;-53
2023/03/12 02:26:57;;;;;;;;;8.00;7.67;;;;;;;;5047987;28;46153;-55
2023/03/12 02:29:24;;;;;;;;;8.67;8.67;;;;;;;;5036961;28;45449;-54
2023/03/12 02:31:51;;;;;;;;;5.67;5.00;;;;;;;;5073108;28;45506;-56
2023/03/12 02:34:16;;;;;;;;;9.67;7.33;;;;;;;;5058130;28;45485;-52
2023/03/12 02:36:42;;;;;;;;;7.67;7.00;;;;;;;;5073257;27;45709;-56
2023/03/12 02:39:09;;;;;;;;;7.67;7.00;;;;;;;;5055876;28;45467;-57
2023/03/12 02:41:41;;;;;;;;;7.67;6.67;;;;;;;;5054212;28;45498;-56
2023/03/12 02:44:16;;;;;;;;;10.00;8.67;;;;;;;;5039565;28;45450;-55
2023/03/12 02:46:42;;;;;;;;;5.33;5.33;;;;;;;;5073316;28;45506;-56
2023/03/12 02:49:08;;;;;;;;;7.00;7.00;;;;;;;;5054844;28;45487;-54
2023/03/12 02:51:33;;;;;;;;;7.00;7.00;;;;;;;;5059681;27;45514;-56
2023/03/12 02:53:58;;;;;;;;;7.00;5.00;;;;;;;;5068830;27;45468;-53
2023/03/12 02:56:25;;;;;;;;;14.00;8.00;;;;;;;;5056287;28;45541;-56
2023/03/12 02:58:50;;;;;;;;;9.33;6.33;;;;;;;;5068203;28;45501;-55
2023/03/12 03:01:16;;;;;;;;;10.67;8.00;;;;;;;;5071666;28;45513;-56
2023/03/12 03:03:41;;;;;;;;;9.67;7.00;;;;;;;;5055840;28;45562;-55
2023/03/12 03:06:06;;;;;;;;;7.67;7.33;;;;;;;;5070160;27;45564;-52
2023/03/12 03:08:31;;;;;;;;;12.67;8.67;;;;;;;;5063671;28;45470;-54
2023/03/12 03:10:57;;;;;;;;;6.67;4.33;;;;;;;;5068064;27;45527;-56
2023/03/12 03:13:23;;;;;;;;;8.00;7.33;;;;;;;;5070280;28;45559;-51
2023/03/12 03:15:48;;;;;;;;;9.00;8.33;;;;;;;;5076305;27;46216;-56
2023/03/12 03:18:13;;;;;;;;;9.00;9.00;;;;;;;;5068214;27;45498;-56
2023/03/12 03:20:38;;;;;;;;;8.00;4.67;;;;;;;;5050902;27;45501;-54
2023/03/12 03:23:04;;;;;;;;;7.00;5.00;;;;;;;;5072064;27;45537;-56
2023/03/12 03:25:29;;;;;;;;;7.00;5.00;;;;;;;;5060324;27;45540;-54
2023/03/12 03:27:54;;;;;;;;;12.33;8.67;;;;;;;;5065896;28;45478;-56
2023/03/12 03:30:20;;;;;;;;;8.00;7.67;;;;;;;;5055640;28;45493;-54
2023/03/12 03:32:46;;;;;;;;;7.00;3.00;;;;;;;;5058888;27;45576;-52
2023/03/12 03:35:11;;;;;;;;;9.33;8.00;;;;;;;;5076187;27;45368;-54
2023/03/12 03:37:36;;;;;;;;;7.67;5.00;;;;;;;;5068153;27;45502;-56
2023/03/12 03:40:02;;;;;;;;;8.67;7.00;;;;;;;;5066611;27;45481;-52
2023/03/12 03:42:27;;;;;;;;;6.33;4.33;;;;;;;;5039133;28;45471;-53
2023/03/12 03:44:52;;;;;;;;;7.00;3.33;;;;;;;;5055435;28;45533;-53
2023/03/12 03:47:18;;;;;;;;;5.67;4.00;;;;;;;;5069123;27;45764;-53
2023/03/12 03:49:44;;;;;;;;;9.00;7.00;;;;;;;;5065810;27;45443;-55
2023/03/12 03:52:09;;;;;;;;;7.67;6.67;;;;;;;;5062597;27;45685;-54
2023/03/12 03:54:34;;;;;;;;;8.67;5.00;;;;;;;;5061930;28;46673;-55
2023/03/12 03:57:00;;;;;;;;;5.33;4.00;;;;;;;;5054600;28;45633;-56
2023/03/12 03:59:25;;;;;;;;;7.33;6.33;;;;;;;;5055444;28;45471;-55
2023/03/12 04:01:51;;;;;;;;;5.67;3.67;;;;;;;;5064160;27;45437;-55
2023/03/12 04:04:16;;;;;;;;;9.00;5.67;;;;;;;;5067835;27;45505;-56
2023/03/12 04:06:41;;;;;;;;;5.67;3.00;;;;;;;;5061832;28;45523;-57
2023/03/12 04:09:06;;;;;;;;;8.00;5.00;;;;;;;;5061959;27;45621;-53
2023/03/12 04:11:32;;;;;;;;;8.00;4.00;;;;;;;;5060534;27;45751;-56
2023/03/12 04:13:57;;;;;;;;;5.00;5.00;;;;;;;;5054341;28;45540;-55
2023/03/12 04:16:22;;;;;;;;;7.00;4.00;;;;;;;;5052619;28;45574;-54
2023/03/12 04:18:47;;;;;;;;;7.00;3.00;;;;;;;;5057835;28;45494;-54
2023/03/12 04:21:13;;;;;;;;;7.00;4.00;;;;;;;;5071308;27;45634;-54
2023/03/12 04:23:38;;;;;;;;;8.67;5.00;;;;;;;;5071269;27;46196;-54
2023/03/12 04:26:03;;;;;;;;;8.00;3.33;;;;;;;;5056918;28;45454;-57
2023/03/12 04:28:29;;;;;;;;;3.67;3.67;;;;;;;;5067573;27;46099;-55
2023/03/12 04:30:55;;;;;;;;;7.67;4.67;;;;;;;;5066895;27;45486;-53
2023/03/12 04:33:20;;;;;;;;;6.67;4.33;;;;;;;;5069750;27;45472;-56
2023/03/12 04:35:50;;;;;;;;;4.33;4.00;;;;;;;;5075280;27;45545;-56
2023/03/12 04:38:15;;;;;;;;;3.33;1.67;;;;;;;;5067877;27;45533;-50
2023/03/12 04:40:40;;;;;;;;;6.33;6.33;;;;;;;;5072581;27;45416;-55
2023/03/12 04:43:06;;;;;;;;;9.67;8.67;;;;;;;;5052778;27;45628;-56
2023/03/12 04:45:31;;;;;;;;;7.00;3.00;;;;;;;;5075087;28;45541;-54
2023/03/12 04:47:56;;;;;;;;;6.67;4.33;;;;;;;;5060606;28;45525;-55
2023/03/12 04:50:21;;;;;;;;;4.67;4.67;;;;;;;;5067964;27;45441;-54
2023/03/12 04:52:46;;;;;;;;;5.00;4.00;;;;;;;;5062074;27;45570;-55
2023/03/12 04:55:12;;;;;;;;;5.67;5.67;;;;;;;;5068050;27;45645;-53
2023/03/12 04:57:37;;;;;;;;;2.67;2.67;;;;;;;;5069758;27;45495;-53
2023/03/12 05:00:04;;;;;;;;;5.67;3.67;;;;;;;;5074079;27;45566;-54
2023/03/12 05:02:29;;;;;;;;;7.67;4.00;;;;;;;;5041494;28;46976;-54
2023/03/12 05:04:55;;;;;;;;;7.00;4.00;;;;;;;;5065204;27;45379;-52
2023/03/12 05:07:20;;;;;;;;;7.00;7.00;;;;;;;;5071215;27;45426;-55
2023/03/12 05:09:45;;;;;;;;;10.00;3.33;;;;;;;;5062994;27;45653;-53
2023/03/12 05:12:11;;;;;;;;;5.00;4.00;;;;;;;;5051080;28;45616;-54
2023/03/12 05:14:38;;;;;;;;;5.67;4.33;;;;;;;;5031070;28;45594;-56
2023/03/12 05:17:04;;;;;;;;;7.00;4.67;;;;;;;;5047316;28;45585;-56
2023/03/12 05:19:29;;;;;;;;;4.67;4.67;;;;;;;;5055122;28;45857;-56
2023/03/12 05:21:54;;;;;;;;;4.00;4.00;;;;;;;;5065040;27;46076;-54
2023/03/12 05:24:20;;;;;;;;;7.00;7.00;;;;;;;;5060764;27;46155;-54
2023/03/12 05:26:46;;;;;;;;;7.00;5.00;;;;;;;;5051639;28;45473;-55
2023/03/12 05:29:11;;;;;;;;;4.33;4.33;;;;;;;;5074102;27;45739;-55
2023/03/12 05:31:36;;;;;;;;;4.00;4.00;;;;;;;;5060376;27;46027;-51
2023/03/12 05:34:02;;;;;;;;;13.00;7.67;;;;;;;;5074527;27;45512;-54
2023/03/12 05:36:27;;;;;;;;;3.67;3.33;;;;;;;;5058192;28;45681;-55
2023/03/12 05:38:53;;;;;;;;;5.00;4.00;;;;;;;;5074628;28;45542;-56
2023/03/12 05:41:19;;;;;;;;;3.67;3.00;;;;;;;;5059812;27;45575;-53
2023/03/12 05:43:44;;;;;;;;;8.33;5.67;;;;;;;;5063979;28;45467;-56
2023/03/12 05:46:09;;;;;;;;;5.67;4.00;;;;;;;;5051048;28;45684;-53
2023/03/12 05:48:35;;;;;;;;;8.67;4.67;;;;;;;;5053957;28;45523;-51
2023/03/12 05:51:00;;;;;;;;;9.00;3.00;;;;;;;;5051960;28;45524;-54
2023/03/12 05:53:25;;;;;;;;;3.00;3.00;;;;;;;;5068581;27;45446;-56
2023/03/12 05:55:50;;;;;;;;;7.00;5.00;;;;;;;;5065276;27;45528;-55
2023/03/12 05:58:16;;;;;;;;;6.33;6.33;;;;;;;;5063485;28;45423;-56
2023/03/12 06:00:43;;;;;;;;;5.00;4.00;;;;;;;;5059604;28;45955;-56
2023/03/12 06:03:08;;;;;;;;;7.33;4.67;;;;;;;;5074080;27;45457;-56
2023/03/12 06:05:35;;;;;;;;;8.33;3.00;;;;;;;;5060838;27;45529;-53
2023/03/12 06:08:00;;;;;;;;;4.33;3.67;;;;;;;;5068146;27;45401;-56
2023/03/12 06:10:26;;;;;;;;;5.67;4.00;;;;;;;;5051778;28;45962;-54
2023/03/12 06:12:51;;;;;;;;;9.67;5.67;;;;;;;;5052854;28;45489;-55
2023/03/12 06:15:16;;;;;;;;;7.00;5.00;;;;;;;;5066391;27;45418;-52
2023/03/12 06:17:42;;;;;;;;;8.00;5.67;;;;;;;;5068661;27;45640;-53
2023/03/12 06:20:07;;;;;;;;;9.00;5.33;;;;;;;;5052520;28;45606;-55
2023/03/12 06:22:33;;;;;;;;;5.33;4.67;;;;;;;;5035497;28;45475;-56
2023/03/12 06:24:58;;;;;;;;;8.00;4.00;;;;;;;;5062036;28;45841;-53
2023/03/12 06:27:23;;;;;;;;;7.67;5.00;;;;;;;;5058168;28;45541;-56
2023/03/12 06:29:48;;;;;;;;;4.33;4.33;;;;;;;;5073050;27;45484;-54
2023/03/12 06:32:14;;;;;;;;;6.33;3.33;;;;;;;;5059645;27;45476;-55
2023/03/12 06:34:39;;;;;;;;;5.00;5.00;;;;;;;;5070354;27;45665;-56
2023/03/12 06:37:04;;;;;;;;;5.00;5.00;;;;;;;;5067275;27;45432;-56
2023/03/12 06:39:29;;;;;;;;;10.33;5.67;;;;;;;;5056505;28;46204;-57
2023/03/12 06:41:54;;;;;;;;;9.67;6.33;;;;;;;;5067102;27;45624;-54
2023/03/12 06:44:20;;;;;;;;;7.00;4.33;;;;;;;;5070658;27;45383;-53
2023/03/12 06:46:45;;;;;;;;;7.67;4.67;;;;;;;;5073475;27;45477;-54
2023/03/12 06:49:10;;;;;;;;;8.00;5.00;;;;;;;;5051197;28;46257;-54
2023/03/12 06:51:36;;;;;;;;;4.67;4.67;;;;;;;;5056203;28;45484;-53
2023/03/12 06:54:01;;;;;;;;;7.00;7.00;;;;;;;;5061169;27;45577;-56
2023/03/12 06:56:26;;;;;;;;;10.00;9.00;;;;;;;;5076948;27;45475;-53
2023/03/12 06:58:52;;;;;;;;;8.67;6.33;;;;;;;;5060023;28;45470;-55
2023/03/12 07:01:17;;;;;;;;;7.67;5.67;;;;;;;;5073347;27;45474;-56
2023/03/12 07:03:42;;;;;;;;;9.33;7.00;;;;;;;;5070208;27;45427;-60
2023/03/12 07:06:18;;;;;;;;;6.67;5.67;;;;;;;;5072586;27;45418;-53
2023/03/12 07:08:44;;;;;;;;;9.00;7.00;;;;;;;;5060500;27;45487;-55
2023/03/12 07:11:09;;;;;;;;;10.00;5.00;;;;;;;;5052705;28;45657;-56
2023/03/12 07:13:34;;;;;;;;;5.00;5.00;;;;;;;;5064702;27;46105;-55
2023/03/12 07:16:00;;;;;;;;;5.00;5.00;;;;;;;;5070183;27;45376;-56
2023/03/12 07:18:25;;;;;;;;;7.00;5.00;;;;;;;;5072464;27;45548;-51
2023/03/12 07:20:51;;;;;;;;;9.00;7.67;;;;;;;;5076353;27;45476;-55
2023/03/12 07:23:16;;;;;;;;;10.00;7.67;;;;;;;;5072173;28;45618;-53
2023/03/12 07:25:43;;;;;;;;;7.00;5.00;;;;;;;;5076453;27;45524;-55
2023/03/12 07:28:09;;;;;;;;;8.67;6.67;;;;;;;;5070002;27;45967;-55
2023/03/12 07:30:34;;;;;;;;;7.33;4.00;;;;;;;;5074898;27;45463;-55
2023/03/12 07:33:00;;;;;;;;;4.67;4.00;;;;;;;;5054241;27;45661;-56
2023/03/12 07:35:26;;;;;;;;;9.00;5.00;;;;;;;;5047802;27;45635;-57
2023/03/12 07:37:51;;;;;;;;;5.00;5.00;;;;;;;;5067506;28;45918;-54
2023/03/12 07:40:16;;;;;;;;;4.00;4.00;;;;;;;;5066374;27;45450;-55
2023/03/12 07:42:41;;;;;;;;;8.00;5.67;;;;;;;;5056147;27;45566;-56
2023/03/12 07:45:07;;;;;;;;;9.33;7.67;;;;;;;;5070442;27;45449;-55
2023/03/12 07:47:32;;;;;;;;;4.00;3.33;;;;;;;;5075600;27;46179;-55
2023/03/12 07:49:57;;;;;;;;;6.33;4.33;;;;;;;;5067875;27;45431;-56
2023/03/12 07:52:22;;;;;;;;;8.00;4.00;;;;;;;;5057252;27;45430;-53
2023/03/12 07:54:48;;;;;;;;;8.00;5.00;;;;;;;;5067611;27;45550;-54
2023/03/12 07:57:13;;;;;;;;;3.33;3.00;;;;;;;;5072904;27;46142;-55
2023/03/12 07:59:38;;;;;;;;;9.67;7.00;;;;;;;;5069724;27;45435;-55
2023/03/12 08:02:03;;;;;;;;;5.00;3.00;;;;;;;;5055326;28;45571;-55
2023/03/12 08:04:29;;;;;;;;;5.67;4.67;;;;;;;;5061759;27;45535;-58
2023/03/12 08:06:54;;;;;;;;;7.00;5.00;;;;;;;;5052507;28;46147;-58
2023/03/12 08:09:19;;;;;;;;;7.33;4.00;;;;;;;;5056165;28;45383;-58
2023/03/12 08:11:44;;;;;;;;;5.00;5.00;;;;;;;;5057789;28;46668;-58
2023/03/12 08:14:09;;;;;;;;;8.33;2.67;;;;;;;;5051635;28;45581;-58
2023/03/12 08:16:35;;;;;;;;;5.00;4.00;;;;;;;;5064316;27;46072;-57
2023/03/12 08:19:00;;;;;;;;;5.33;3.33;;;;;;;;5075415;27;45414;-58
2023/03/12 08:21:25;;;;;;;;;8.00;5.00;;;;;;;;5059630;27;45506;-57
2023/03/12 08:23:50;;;;;;;;;4.67;1.67;;;;;;;;5068315;27;45400;-57
2023/03/12 08:26:15;;;;;;;;;6.33;4.33;;;;;;;;5072128;27;45441;-58
2023/03/12 08:28:41;;;;;;;;;7.00;4.00;;;;;;;;5047479;28;45730;-58
2023/03/12 08:31:06;;;;;;;;;3.67;3.00;;;;;;;;5073562;27;45719;-58
2023/03/12 08:33:31;;;;;;;;;6.33;4.67;;;;;;;;5046624;28;45729;-56
2023/03/12 08:35:57;;;;;;;;;8.67;8.00;;;;;;;;5056873;27;45530;-57
2023/03/12 08:38:22;;;;;;;;;4.00;4.00;;;;;;;;5058463;27;45693;-58
2023/03/12 08:40:53;;;;;;;;;5.67;4.33;;;;;;;;5059099;28;45544;-55
2023/03/12 08:43:18;;;;;;;;;5.00;5.00;;;;;;;;5054220;28;45572;-58
2023/03/12 08:45:43;;;;;;;;;6.67;6.67;;;;;;;;5057159;27;46234;-58
2023/03/12 08:48:09;;;;;;;;;3.00;2.00;;;;;;;;5059737;28;45487;-61
2023/03/12 08:50:34;;;;;;;;;8.00;4.00;;;;;;;;5068798;28;45541;-58
2023/03/12 08:52:59;;;;;;;;;12.33;6.33;;;;;;;;5047198;27;45464;-57
2023/03/12 08:55:26;;;;;;;;;10.00;5.67;;;;;;;;5059984;27;45469;-57
2023/03/12 08:57:52;;;;;;;;;4.67;4.33;;;;;;;;5057065;27;45443;-57
2023/03/12 09:00:17;;;;;;;;;4.67;4.00;;;;;;;;5055355;27;45497;-57
2023/03/12 09:02:43;;;;;;;;;6.33;4.00;;;;;;;;5068019;27;45657;-58
2023/03/12 09:05:08;;;;;;;;;5.00;4.00;;;;;;;;5054851;28;46092;-58
2023/03/12 09:07:34;;;;;;;;;5.00;5.00;;;;;;;;5057248;27;45599;-58
2023/03/12 09:09:59;;;;;;;;;5.67;4.67;;;;;;;;5049535;28;45487;-58
2023/03/12 09:12:24;;;;;;;;;6.67;3.00;;;;;;;;5056808;27;45509;-59
2023/03/12 09:14:49;;;;;;;;;5.00;3.00;;;;;;;;5051564;28;45992;-59
2023/03/12 09:17:15;;;;;;;;;10.33;6.67;;;;;;;;5067313;28;45419;-58
2023/03/12 09:19:40;;;;;;;;;2.33;2.33;;;;;;;;5050447;28;45497;-58
2023/03/12 09:22:05;;;;;;;;;4.00;3.67;;;;;;;;5048689;28;45588;-57
2023/03/12 09:24:30;;;;;;;;;6.33;4.67;;;;;;;;5052737;27;46224;-57
2023/03/12 09:26:56;;;;;;;;;3.33;1.00;;;;;;;;5064408;27;45492;-56
2023/03/12 09:29:22;;;;;;;;;4.33;4.33;;;;;;;;5054716;28;45419;-62
2023/03/12 09:31:47;;;;;;;;;8.00;4.00;;;;;;;;5066762;28;45581;-60
2023/03/12 09:34:12;;;;;;;;;4.33;3.00;;;;;;;;5050052;28;46141;-62
2023/03/12 09:36:37;;;;;;;;;4.67;2.00;;;;;;;;5061061;27;45437;-61
2023/03/12 09:39:03;;;;;;;;;3.00;2.67;;;;;;;;5044890;28;45471;-61
2023/03/12 09:41:30;;;;;;;;;4.33;4.33;;;;;;;;5069694;27;45566;-62
2023/03/12 09:44:06;;;;;;;;;5.33;4.67;;;;;;;;5051719;28;46065;-61
2023/03/12 09:46:37;;;;;;;;;5.00;3.67;;;;;;;;5053440;28;45462;-62
2023/03/12 09:49:05;;;;;;;;;4.67;4.67;;;;;;;;5025839;28;45611;-62
2023/03/12 09:51:34;;;;;;;;;4.67;4.67;;;;;;;;5048033;28;45574;-62
2023/03/12 09:54:02;;;;;;;;;4.00;2.33;;;;;;;;5055208;28;45645;-63
2023/03/12 09:56:28;;;;;;;;;3.33;3.00;;;;;;;;5058326;28;45447;-62
2023/03/12 09:58:55;;;;;;;;;8.33;3.67;;;;;;;;5049617;28;45561;-63
2023/03/12 10:01:37;;;;;;;;;5.00;4.67;;;;;;;;5042685;28;45568;-63
2023/03/12 10:04:02;;;;;;;;;6.00;4.67;;;;;;;;5047319;28;45628;-61
2023/03/12 10:06:32;;;;;;;;;2.67;2.67;;;;;;;;5046872;28;45517;-62
2023/03/12 10:09:16;;;;;;;;;3.33;2.00;;;;;;;;5024968;28;46098;-61
2023/03/12 10:12:01;;;;;;;;;4.00;4.00;;;;;;;;5049032;28;45677;-62
2023/03/12 10:14:36;;;;;;;;;2.33;2.33;;;;;;;;5043675;28;46318;-62
2023/03/12 10:17:01;;;;;;;;;3.67;2.33;;;;;;;;5055601;28;45535;-63
2023/03/12 10:19:27;;;;;;;;;3.33;3.00;;;;;;;;5036307;28;45530;-61
2023/03/12 10:22:01;;;;;;;;;5.33;4.00;;;;;;;;5055343;28;45432;-61
2023/03/12 10:24:52;;;;;;;;;2.00;2.00;;;;;;;;5037108;28;47146;-60
2023/03/12 10:27:21;;;;;;;;;3.00;3.00;;;;;;;;5050170;28;45443;-63
2023/03/12 10:29:48;;;;;;;;;5.00;5.00;;;;;;;;5054008;28;45630;-63
2023/03/12 10:32:15;;;;;;;;;3.67;3.67;;;;;;;;5055182;28;45590;-60
2023/03/12 10:34:58;;;;;;;;;4.00;3.00;;;;;;;;5054767;28;45570;-60
2023/03/12 10:37:42;;;;;;;;;4.67;2.33;;;;;;;;5055397;28;45501;-63
2023/03/12 10:40:14;;;;;;;;;3.67;2.33;;;;;;;;5049388;28;45965;-61
2023/03/12 10:42:39;;;;;;;;;3.00;3.00;;;;;;;;5055755;28;45385;-62
2023/03/12 10:45:04;;;;;;;;;3.00;2.00;;;;;;;;5052115;28;45648;-62
2023/03/12 10:47:35;;;;;;;;;6.00;3.00;;;;;;;;5059107;27;45481;-62
2023/03/12 10:50:12;;;;;;;;;4.00;4.00;;;;;;;;5064356;27;45435;-58
2023/03/12 10:52:37;;;;;;;;;3.00;2.00;;;;;;;;5072191;27;45545;-62
2023/03/12 10:55:10;;;;;;;;;5.00;5.00;;;;;;;;5075826;27;46012;-62
2023/03/12 10:57:39;;;;;;;;;6.33;2.67;;;;;;;;5060979;27;45524;-62
2023/03/12 11:00:08;;;;;;;;;8.67;3.00;;;;;;;;5054145;27;45675;-61
2023/03/12 11:02:36;;;;;;;;;4.67;2.67;;;;;;;;5057234;27;45532;-61
2023/03/12 11:05:17;;;;;;;;;3.67;3.00;;;;;;;;5072520;27;46168;-62
2023/03/12 11:07:42;;;;;;;;;4.00;4.00;;;;;;;;5052920;27;45614;-61
2023/03/12 11:10:07;;;;;;;;;5.00;3.00;;;;;;;;5075504;27;45552;-61
2023/03/12 11:12:35;;;;;;;;;4.00;2.00;;;;;;;;5063669;27;45449;-60
2023/03/12 11:15:17;;;;;;;;;5.00;4.00;;;;;;;;5044068;28;45601;-61
2023/03/12 11:17:42;;;;;;;;;6.00;4.67;;;;;;;;5045367;28;45586;-59
2023/03/12 11:20:18;;;;;;;;;5.00;4.00;;;;;;;;5045831;28;45689;-61
2023/03/12 11:22:43;;;;;;;;;3.67;3.00;;;;;;;;5053882;28;45475;-63
2023/03/12 11:25:19;;;;;;;;;5.33;5.33;;;;;;;;5046960;28;46534;-62
2023/03/12 11:27:48;;;;;;;;;4.67;3.67;;;;;;;;5029297;28;45594;-61
2023/03/12 11:30:15;;;;;;;;;5.00;3.67;;;;;;;;5052369;28;45534;-60
2023/03/12 11:32:42;;;;;;;;;3.67;3.67;;;;;;;;5048663;28;45463;-62
2023/03/12 11:35:10;;;;;;;;;3.33;1.33;;;;;;;;5055247;28;46715;-61
2023/03/12 11:37:54;;;;;;;;;2.67;2.33;;;;;;;;5050653;28;45483;-62
2023/03/12 11:40:37;;;;;;;;;3.00;2.00;;;;;;;;5047445;28;45513;-62
2023/03/12 11:43:03;;;;;;;;;3.00;3.00;;;;;;;;5048981;28;45618;-61
2023/03/12 11:45:47;;;;;;;;;7.33;4.00;;;;;;;;5054330;28;45459;-58
2023/03/12 11:48:30;;;;;;;;;3.00;3.00;;;;;;;;5053726;28;45595;-56
2023/03/12 11:51:05;;;;;;;;;2.00;2.00;;;;;;;;5052692;28;45474;-60
2023/03/12 11:53:30;;;;;;;;;5.00;5.00;;;;;;;;5054369;28;45577;-59
2023/03/12 11:56:05;;;;;;;;;3.00;3.00;;;;;;;;5071951;28;45441;-59
2023/03/12 11:58:44;;;;;;;;;6.00;5.00;;;;;;;;5073790;27;45538;-59
2023/03/12 12:01:23;;;;;;;;;5.00;2.00;;;;;;;;5063195;28;45566;-61
2023/03/12 12:04:02;;;;;;;;;3.67;1.33;;;;;;;;5052236;28;45643;-58
2023/03/12 12:06:35;;;;;;;;;4.67;3.33;;;;;;;;5066910;27;46059;-61
2023/03/12 12:09:23;;;;;;;;;1.33;1.00;;;;;;;;5033959;27;45802;-59
2023/03/12 12:11:49;;;;;;;;;4.00;2.67;;;;;;;;5047025;28;45505;-61
2023/03/12 12:14:18;;;;;;;;;5.00;4.00;;;;;;;;5064964;27;45510;-57
2023/03/12 12:17:03;;;;;;;;;1.00;1.00;;;;;;;;5069120;27;46241;-58
2023/03/12 12:19:28;;;;;;;;;10.00;6.33;;;;;;;;5025837;27;45655;-55
2023/03/12 12:22:15;;;;;;;;;5.00;4.50;;;;;;;;5058874;27;45554;-61
2023/03/12 12:24:43;;;;;;;;;3.67;3.67;;;;;;;;5056581;28;45651;-57
2023/03/12 12:27:23;;;;;;;;;5.67;4.33;;;;;;;;5063655;27;46021;-56
2023/03/12 12:30:07;;;;;;;;;4.00;2.67;;;;;;;;5068514;28;45556;-60
2023/03/12 12:32:45;;;;;;;;;2.33;2.33;;;;;;;;5054058;28;45497;-59
2023/03/12 12:35:10;;;;;;;;;3.00;1.00;;;;;;;;5074370;27;45488;-59
2023/03/12 12:37:35;;;;;;;;;5.67;2.00;;;;;;;;5066734;28;46197;-57
2023/03/12 12:40:07;;;;;;;;;4.00;4.00;;;;;;;;5046170;28;45576;-60
2023/03/12 12:42:35;;;;;;;;;3.00;3.00;;;;;;;;5052573;28;45569;-57
2023/03/12 12:45:02;;;;;;;;;4.00;4.00;;;;;;;;5070786;27;45433;-58
2023/03/12 12:47:36;;;;;;;;;6.33;3.33;;;;;;;;5053461;28;47611;-57
2023/03/12 12:50:02;;;;;;;;;2.00;2.00;;;;;;;;5068839;27;45477;-55
2023/03/12 12:52:27;;;;;;;;;5.33;3.33;;;;;;;;5067208;27;45581;-55
2023/03/12 12:55:11;;;;;;;;;11.33;4.00;;;;;;;;5061069;28;45429;-57
2023/03/12 12:57:55;;;;;;;;;2.00;2.00;;;;;;;;5044201;28;46576;-56
2023/03/12 13:00:38;;;;;;;;;3.33;2.33;;;;;;;;5054601;27;45565;-60
2023/03/12 13:03:03;;;;;;;;;5.33;4.00;;;;;;;;5057467;28;45519;-61
2023/03/12 13:05:34;;;;;;;;;4.33;3.00;;;;;;;;5050363;28;45427;-58
2023/03/12 13:08:00;;;;;;;;;4.67;3.33;;;;;;;;5067328;27;45550;-55
2023/03/12 13:10:47;;;;;;;;;2.00;2.00;;;;;;;;5052858;28;45782;-61
2023/03/12 13:13:18;;;;;;;;;5.67;3.67;;;;;;;;5053173;27;45490;-61
2023/03/12 13:15:43;;;;;;;;;3.00;2.00;;;;;;;;5068062;27;45545;-62
2023/03/12 13:18:09;;;;;;;;;2.33;2.33;;;;;;;;5073643;27;45898;-60
2023/03/12 13:20:52;;;;;;;;;2.00;1.67;;;;;;;;5055324;27;45553;-62
2023/03/12 13:23:20;;;;;;;;;5.00;1.67;;;;;;;;5050654;27;45490;-62
2023/03/12 13:25:51;;;;;;;;;3.00;3.00;;;;;;;;5073663;27;45496;-61
2023/03/12 13:28:29;;;;;;;;;1.33;1.33;;;;;;;;5073599;27;45508;-61
2023/03/12 13:30:54;;;;;;;;;1.67;1.67;;;;;;;;5050935;28;45545;-61
2023/03/12 13:33:41;;;;;;;;;4.00;2.00;;;;;;;;5073483;27;45545;-60
2023/03/12 13:36:09;;;;;;;;;4.00;3.33;;;;;;;;5040286;27;45489;-65
2023/03/12 13:38:36;;;;;;;;;3.00;3.00;;;;;;;;5073327;27;46195;-65
2023/03/12 13:41:03;;;;;;;;;3.33;3.33;;;;;;;;5058078;27;45545;-64
2023/03/12 13:43:39;;;;;;;;;2.67;2.67;;;;;;;;5073367;27;45431;-64
2023/03/12 13:46:05;;;;;;;;;4.33;4.33;;;;;;;;5063155;27;45486;-64
2023/03/12 13:48:33;;;;;;;;;5.33;3.67;;;;;;;;5042831;28;45439;-64
2023/03/12 13:51:01;;;;;;;;;3.33;3.33;;;;;;;;5073083;27;45485;-63
2023/03/12 13:53:31;;;;;;;;;6.67;4.67;;;;;;;;5073221;27;45489;-64
2023/03/12 13:56:04;;;;;;;;;1.67;1.67;;;;;;;;5055024;27;45565;-66
2023/03/12 13:58:29;;;;;;;;;7.00;4.00;;;;;;;;5072730;27;46921;-64
2023/03/12 14:01:04;;;;;;;;;4.67;3.00;;;;;;;;5069375;27;45579;-66
2023/03/12 14:03:35;;;;;;;;;6.67;3.00;;;;;;;;5048170;28;45548;-61
2023/03/12 14:06:03;;;;;;;;;6.00;5.00;;;;;;;;5022088;28;45568;-59
2023/03/12 14:08:47;;;;;;;;;4.00;2.00;;;;;;;;5052335;27;45648;-59
2023/03/12 14:11:15;;;;;;;;;3.00;2.00;;;;;;;;5038377;28;45522;-58
2023/03/12 14:13:47;;;;;;;;;4.00;4.00;;;;;;;;5047087;28;45619;-59
2023/03/12 14:16:18;;;;;;;;;2.00;1.00;;;;;;;;5044485;28;45458;-59
2023/03/12 14:18:44;;;;;;;;;4.00;3.00;;;;;;;;5064109;27;46155;-58
2023/03/12 14:21:13;;;;;;;;;3.33;3.33;;;;;;;;5046889;28;45549;-59
2023/03/12 14:23:43;;;;;;;;;2.33;1.67;;;;;;;;5045954;28;45603;-58
2023/03/12 14:26:16;;;;;;;;;6.00;5.00;;;;;;;;5070917;27;45652;-59
2023/03/12 14:28:41;;;;;;;;;3.33;2.00;;;;;;;;5073330;28;45541;-59
2023/03/12 14:31:15;;;;;;;;;2.33;2.00;;;;;;;;5047110;28;45495;-58
2023/03/12 14:33:46;;;;;;;;;3.33;2.00;;;;;;;;5058787;27;45405;-57
2023/03/12 14:36:15;;;;;;;;;2.00;2.00;;;;;;;;5052260;28;45597;-57
2023/03/12 14:38:44;;;;;;;;;3.00;3.00;;;;;;;;5072225;27;46216;-58
2023/03/12 14:41:12;;;;;;;;;3.00;3.00;;;;;;;;5072092;27;45579;-58
2023/03/12 14:43:38;;;;;;;;;6.00;5.00;;;;;;;;5072720;28;45482;-58